Time;durP1;ratioP1;P1;durP2;ratioP2;P2;SDS_P1;SDS_P2;PMS_P1;PMS_P2;Temp;Humidity;BMP_temperature;BMP_pressure;BME280_temperature;BME280_humidity;BME280_pressure;Samples;Min_cycle;Max_cycle;Signal;HPM_P1;HPM_P2
2023/11/23 00:00:53;;;;;;;20.40;15.90;;;;;;;-1.73;76.27;97829.42;104994;1257;97327;-74
2023/11/23 00:03:40;;;;;;;21.80;16.70;;;;;;;-1.73;76.31;97828.03;104643;1265;97118;-74
2023/11/23 00:06:08;;;;;;;19.30;15.30;;;;;;;-1.71;76.35;97826.96;104920;1256;100828;-74
2023/11/23 00:08:36;;;;;;;23.00;16.70;;;;;;;-1.72;76.25;97826.86;104988;1256;100472;-74
2023/11/23 00:11:04;;;;;;;21.90;16.70;;;;;;;-1.72;76.32;97822.27;104966;1254;100169;-74
2023/11/23 00:13:32;;;;;;;21.50;17.20;;;;;;;-1.71;76.28;97819.04;104957;1269;96580;-74
2023/11/23 00:16:00;;;;;;;22.90;17.60;;;;;;;-1.72;76.32;97819.77;105017;1256;97120;-78
2023/11/23 00:18:27;;;;;;;23.20;17.70;;;;;;;-1.70;76.42;97817.36;104995;1256;101112;-78
2023/11/23 00:20:57;;;;;;;21.20;16.30;;;;;;;-1.67;76.47;97823.06;104924;1269;101404;-78
2023/11/23 00:23:25;;;;;;;22.10;17.00;;;;;;;-1.64;76.49;97820.17;104920;1256;98622;-78
2023/11/23 00:25:52;;;;;;;22.40;17.70;;;;;;;-1.60;76.60;97814.56;104994;1256;96612;-80
2023/11/23 00:28:20;;;;;;;22.80;18.90;;;;;;;-1.58;76.58;97799.80;105030;1256;98404;-70
2023/11/23 00:30:48;;;;;;;22.80;18.40;;;;;;;-1.54;76.62;97791.66;105035;1256;102611;-70
2023/11/23 00:33:16;;;;;;;25.30;18.80;;;;;;;-1.51;76.69;97783.30;104981;1257;100391;-70
2023/11/23 00:35:43;;;;;;;25.40;19.70;;;;;;;-1.49;76.73;97779.05;104916;1259;99916;-70
2023/11/23 00:38:16;;;;;;;25.80;19.40;;;;;;;-1.48;76.63;97778.45;104986;1256;97282;-70
2023/11/23 00:40:43;;;;;;;21.80;17.90;;;;;;;-1.46;76.69;97777.42;104999;1267;97439;-70
2023/11/23 00:43:11;;;;;;;26.60;19.50;;;;;;;-1.44;76.76;97780.54;104950;1258;102393;-70
2023/11/23 00:45:39;;;;;;;23.30;19.10;;;;;;;-1.43;76.70;97775.91;104934;1257;100421;-70
2023/11/23 00:48:07;;;;;;;25.20;19.20;;;;;;;-1.45;76.81;97772.88;104977;1256;99970;-79
2023/11/23 00:50:34;;;;;;;25.10;19.60;;;;;;;-1.48;76.75;97781.92;104983;1264;97909;-79
2023/11/23 00:53:02;;;;;;;24.30;18.60;;;;;;;-1.49;76.81;97774.27;104986;1266;97260;-79
2023/11/23 00:55:30;;;;;;;24.20;19.00;;;;;;;-1.49;76.90;97772.82;104961;1260;101237;-79
2023/11/23 00:57:57;;;;;;;25.90;20.00;;;;;;;-1.50;76.89;97781.97;104980;1256;100397;-79
2023/11/23 01:00:25;;;;;;;26.60;19.80;;;;;;;-1.53;76.84;97780.41;104953;1253;99822;-79
2023/11/23 01:02:53;;;;;;;26.60;20.00;;;;;;;-1.54;76.70;97776.33;104949;1259;97249;-79
2023/11/23 01:05:21;;;;;;;24.20;20.20;;;;;;;-1.54;76.85;97772.75;104963;1275;98242;-70
2023/11/23 01:07:49;;;;;;;27.30;20.70;;;;;;;-1.55;76.95;97766.65;104955;1270;102320;-70
2023/11/23 01:10:17;;;;;;;27.00;20.30;;;;;;;-1.57;76.90;97760.95;105045;1275;101199;-71
2023/11/23 01:12:44;;;;;;;26.60;20.20;;;;;;;-1.57;76.88;97761.15;104991;1254;99710;-70
2023/11/23 01:15:13;;;;;;;27.20;20.10;;;;;;;-1.58;76.88;97760.96;104971;1256;96629;-70
2023/11/23 01:17:40;;;;;;;31.00;22.80;;;;;;;-1.59;77.02;97754.46;105049;1257;97391;-70
2023/11/23 01:20:09;;;;;;;34.60;25.20;;;;;;;-1.56;77.13;97741.14;104938;1256;101993;-70
2023/11/23 01:22:37;;;;;;;33.30;24.70;;;;;;;-1.57;77.04;97742.46;105034;1264;101478;-70
2023/11/23 01:25:08;;;;;;;33.50;24.70;;;;;;;-1.57;77.15;97739.17;104951;1259;99873;-70
2023/11/23 01:27:36;;;;;;;29.30;20.50;;;;;;;-1.56;77.33;97739.02;104928;1256;96572;-69
2023/11/23 01:30:05;;;;;;;43.10;28.70;;;;;;;-1.56;77.45;97733.57;104982;1257;97190;-70
2023/11/23 01:32:33;;;;;;;37.20;28.60;;;;;;;-1.57;77.56;97732.79;104909;1258;102170;-70
2023/11/23 01:35:02;;;;;;;34.10;25.60;;;;;;;-1.59;77.64;97728.92;104782;1261;101348;-71
2023/11/23 01:37:29;;;;;;;33.60;25.70;;;;;;;-1.63;77.56;97727.84;105042;1269;99917;-70
2023/11/23 01:39:58;;;;;;;36.90;25.90;;;;;;;-1.67;77.52;97722.20;104960;1266;97792;-70
2023/11/23 01:42:25;;;;;;;41.20;30.10;;;;;;;-1.70;77.61;97710.44;104958;1268;97833;-69
2023/11/23 01:44:53;;;;;;;39.50;30.80;;;;;;;-1.72;77.57;97701.77;105093;1256;102482;-79
2023/11/23 01:47:21;;;;;;;43.40;31.80;;;;;;;-1.75;77.62;97690.16;105034;1263;100560;-70
2023/11/23 01:49:51;;;;;;;40.40;29.50;;;;;;;-1.78;77.71;97681.05;104930;1257;99675;-70
2023/11/23 01:52:19;;;;;;;36.90;28.80;;;;;;;-1.80;77.78;97675.04;105010;1257;97169;-69
2023/11/23 01:54:46;;;;;;;39.40;28.50;;;;;;;-1.81;77.83;97674.79;104887;1259;96991;-70
2023/11/23 01:57:15;;;;;;;35.20;28.10;;;;;;;-1.83;77.85;97665.95;104901;1256;102307;-69
2023/11/23 01:59:44;;;;;;;52.00;37.90;;;;;;;-1.84;77.89;97659.18;104956;1253;101881;-69
2023/11/23 02:02:12;;;;;;;46.50;35.40;;;;;;;-1.87;77.87;97659.96;104971;1258;99855;-70
2023/11/23 02:04:39;;;;;;;45.40;34.70;;;;;;;-1.90;77.86;97660.73;104969;1256;96690;-70
2023/11/23 02:07:08;;;;;;;43.90;33.60;;;;;;;-1.93;77.96;97662.50;104907;1257;96998;-70
2023/11/23 02:09:35;;;;;;;37.40;29.60;;;;;;;-1.94;77.91;97667.21;104996;1266;102503;-70
2023/11/23 02:12:06;;;;;;;42.00;33.00;;;;;;;-1.97;77.89;97666.27;104955;1257;101369;-69
2023/11/23 02:14:35;;;;;;;32.50;26.60;;;;;;;-2.02;77.94;97655.55;104958;1264;99244;-69
2023/11/23 02:17:17;;;;;;;27.70;22.10;;;;;;;-2.05;78.03;97646.81;105010;1260;97385;-79
2023/11/23 02:19:47;;;;;;;26.90;22.00;;;;;;;-2.06;78.17;97646.19;104874;1259;97314;-79
2023/11/23 02:22:15;;;;;;;29.30;22.30;;;;;;;-2.04;78.15;97645.11;105046;1256;111880;-79
2023/11/23 02:24:44;;;;;;;32.70;25.10;;;;;;;-2.03;78.16;97645.77;104846;1259;101331;-79
2023/11/23 02:27:12;;;;;;;35.90;27.50;;;;;;;-2.00;78.30;97650.62;105049;1266;100142;-79
2023/11/23 02:29:40;;;;;;;38.10;25.70;;;;;;;-1.95;78.40;97654.40;104959;1260;97234;-78
2023/11/23 02:32:11;;;;;;;29.70;24.10;;;;;;;-1.92;78.37;97655.02;104754;1260;97903;-73
2023/11/23 02:34:39;;;;;;;31.70;25.10;;;;;;;-1.92;78.35;97652.64;104701;1259;102158;-74
2023/11/23 02:37:07;;;;;;;30.40;24.10;;;;;;;-1.96;78.30;97654.34;104622;1262;101395;-74
2023/11/23 02:39:35;;;;;;;31.40;24.40;;;;;;;-2.01;78.28;97650.38;104651;1262;99036;-74
2023/11/23 02:42:02;;;;;;;31.50;24.70;;;;;;;-2.04;78.44;97648.52;104763;1260;96632;-73
2023/11/23 02:44:30;;;;;;;30.50;24.00;;;;;;;-2.03;78.50;97651.23;104766;1257;97319;-79
2023/11/23 02:46:58;;;;;;;32.10;25.30;;;;;;;-2.02;78.42;97652.93;104736;1270;101434;-79
2023/11/23 02:49:26;;;;;;;32.90;25.40;;;;;;;-2.01;78.52;97650.21;104684;1267;100491;-78
2023/11/23 02:51:53;;;;;;;32.40;24.90;;;;;;;-1.99;78.65;97648.08;104734;1265;99199;-79
2023/11/23 02:54:21;;;;;;;33.50;24.90;;;;;;;-1.99;78.65;97649.15;104740;1259;97502;-79
2023/11/23 02:56:49;;;;;;;33.80;27.50;;;;;;;-2.01;78.61;97647.20;104713;1259;96565;-79
2023/11/23 02:59:17;;;;;;;36.60;28.10;;;;;;;-2.06;78.61;97636.51;104709;1259;102054;-79
2023/11/23 03:01:45;;;;;;;36.30;29.70;;;;;;;-2.12;78.62;97627.99;104673;1270;107177;-79
2023/11/23 03:04:12;;;;;;;37.40;29.90;;;;;;;-2.16;78.71;97627.43;104851;1257;100092;-79
2023/11/23 03:06:40;;;;;;;36.10;28.00;;;;;;;-2.19;78.74;97621.88;104952;1266;96679;-79
2023/11/23 03:09:08;;;;;;;35.80;27.50;;;;;;;-2.22;78.74;97612.23;105052;1256;97209;-79
2023/11/23 03:11:35;;;;;;;34.10;27.70;;;;;;;-2.24;78.87;97612.81;104949;1264;101841;-79
2023/11/23 03:14:03;;;;;;;35.90;29.90;;;;;;;-2.27;78.86;97615.13;104943;1267;101708;-79
2023/11/23 03:16:32;;;;;;;35.30;27.40;;;;;;;-2.29;78.87;97612.52;104743;1270;98836;-79
2023/11/23 03:19:00;;;;;;;37.00;27.40;;;;;;;-2.31;78.89;97612.15;104963;1267;96574;-79
2023/11/23 03:21:27;;;;;;;33.10;25.70;;;;;;;-2.32;78.89;97610.98;105001;1257;96580;-79
2023/11/23 03:23:56;;;;;;;29.60;24.10;;;;;;;-2.33;78.92;97610.77;104978;1257;102433;-79
2023/11/23 03:26:23;;;;;;;30.30;23.40;;;;;;;-2.35;79.00;97607.04;104914;1269;101169;-78
2023/11/23 03:28:51;;;;;;;28.70;23.40;;;;;;;-2.38;78.99;97604.61;104932;1262;100245;-79
2023/11/23 03:31:19;;;;;;;27.60;22.30;;;;;;;-2.41;79.02;97604.48;104990;1257;97296;-79
2023/11/23 03:33:47;;;;;;;28.70;22.20;;;;;;;-2.43;79.09;97602.75;104967;1266;98209;-79
2023/11/23 03:36:14;;;;;;;28.20;21.90;;;;;;;-2.47;79.08;97590.02;104939;1257;100955;-79
2023/11/23 03:38:43;;;;;;;27.00;22.20;;;;;;;-2.50;79.15;97586.23;104990;1257;101210;-74
2023/11/23 03:41:10;;;;;;;32.10;23.80;;;;;;;-2.50;79.21;97586.77;104990;1257;99867;-74
2023/11/23 03:43:38;;;;;;;33.20;24.00;;;;;;;-2.50;79.21;97587.12;104962;1256;96794;-74
2023/11/23 03:46:06;;;;;;;30.50;23.60;;;;;;;-2.50;79.29;97589.09;104976;1260;97009;-74
2023/11/23 03:48:33;;;;;;;29.70;22.70;;;;;;;-2.50;79.28;97589.09;104965;1266;109906;-74
2023/11/23 03:51:02;;;;;;;29.90;23.10;;;;;;;-2.50;79.37;97594.55;104996;1266;101429;-74
2023/11/23 03:53:30;;;;;;;29.60;23.40;;;;;;;-2.50;79.34;97601.08;104683;1270;100016;-74
2023/11/23 03:55:57;;;;;;;29.00;22.50;;;;;;;-2.50;79.46;97599.77;104953;1275;97893;-74
2023/11/23 03:58:25;;;;;;;26.50;21.20;;;;;;;-2.48;79.43;97598.77;105007;1257;99131;-74
2023/11/23 04:00:52;;;;;;;27.00;20.90;;;;;;;-2.45;79.61;97599.96;105005;1267;102183;-74
2023/11/23 04:03:20;;;;;;;24.70;20.00;;;;;;;-2.44;79.54;97603.20;105030;1257;100184;-74
2023/11/23 04:05:49;;;;;;;31.60;21.60;;;;;;;-2.41;79.60;97601.33;105001;1266;99915;-74
2023/11/23 04:08:16;;;;;;;26.40;20.70;;;;;;;-2.36;79.79;97601.24;104942;1260;96564;-74
2023/11/23 04:10:44;;;;;;;24.80;18.90;;;;;;;-2.32;79.71;97593.40;104967;1267;97508;-74
2023/11/23 04:13:13;;;;;;;24.80;20.10;;;;;;;-2.29;79.65;97585.73;104961;1258;102154;-74
2023/11/23 04:15:40;;;;;;;27.60;22.20;;;;;;;-2.24;79.68;97580.13;105008;1264;111158;-74
2023/11/23 04:18:08;;;;;;;34.20;24.60;;;;;;;-2.19;79.73;97576.55;104956;1257;99075;-74
2023/11/23 06:36:41;;;;;;;17.30;13.50;;;;;;;-0.68;73.68;97402.25;104895;1258;96994;-74
2023/11/23 06:39:09;;;;;;;19.60;14.80;;;;;;;-0.64;73.24;97400.44;104949;1264;102324;-74
2023/11/23 06:41:37;;;;;;;18.20;14.90;;;;;;;-0.58;73.95;97397.23;105006;1254;101092;-74
2023/11/23 06:44:05;;;;;;;19.30;15.30;;;;;;;-0.53;74.09;97390.73;104885;1254;98675;-75
2023/11/23 06:46:32;;;;;;;19.70;14.90;;;;;;;-0.50;73.86;97387.67;105004;1257;96581;-79
2023/11/23 06:49:02;;;;;;;19.30;15.20;;;;;;;-0.50;73.95;97381.77;104912;1256;97206;-79
2023/11/23 06:51:30;;;;;;;23.20;16.20;;;;;;;-0.47;73.44;97374.11;105026;1268;102202;-79
2023/11/23 06:53:58;;;;;;;19.70;14.70;;;;;;;-0.46;73.59;97369.16;104912;1267;100388;-79
2023/11/23 06:56:25;;;;;;;23.40;16.70;;;;;;;-0.41;73.73;97365.06;105033;1268;99061;-79
2023/11/23 06:58:53;;;;;;;20.30;15.00;;;;;;;-0.37;73.44;97366.09;104872;1254;96594;-78
2023/11/23 07:01:21;;;;;;;21.90;16.40;;;;;;;-0.32;73.38;97363.38;104934;1257;97150;-79
2023/11/23 07:03:50;;;;;;;21.90;16.40;;;;;;;-0.28;73.78;97359.73;104948;1254;111820;-79
2023/11/23 07:06:18;;;;;;;21.00;15.80;;;;;;;-0.23;73.60;97360.52;104913;1258;100410;-78
2023/11/23 07:08:45;;;;;;;22.60;16.20;;;;;;;-0.22;73.29;97353.00;105009;1257;100262;-78
2023/11/23 07:11:18;;;;;;;20.10;16.00;;;;;;;-0.20;73.41;97346.05;104853;1267;97196;-78
2023/11/23 07:13:49;;;;;;;21.20;16.20;;;;;;;-0.16;73.48;97355.06;104875;1257;97426;-78
2023/11/23 07:16:17;;;;;;;15.50;11.50;;;;;;;-0.12;73.19;97350.98;104899;1257;102284;-79
2023/11/23 07:18:45;;;;;;;23.40;15.60;;;;;;;-0.09;73.36;97351.22;104939;1257;100066;-78
2023/11/23 07:21:14;;;;;;;20.70;15.70;;;;;;;-0.05;73.74;97351.66;104920;1254;99861;-78
2023/11/23 07:23:42;;;;;;;24.60;16.90;;;;;;;0.01;73.80;97353.55;104927;1254;96598;-78
2023/11/23 07:26:10;;;;;;;22.20;16.30;;;;;;;0.05;72.75;97352.86;104896;1255;98276;-78
2023/11/23 07:28:37;;;;;;;24.50;16.20;;;;;;;0.09;73.01;97345.77;104852;1267;101391;-75
2023/11/23 07:31:09;;;;;;;19.00;14.40;;;;;;;0.13;72.84;97346.23;107426;1254;100366;-77
2023/11/23 07:33:38;;;;;;;18.00;14.20;;;;;;;0.16;72.11;97347.58;108139;1254;98986;-75
2023/11/23 07:36:06;;;;;;;22.30;14.90;;;;;;;0.21;72.74;97349.05;104951;1254;96706;-76
2023/11/23 07:38:34;;;;;;;24.10;15.70;;;;;;;0.27;72.81;97348.02;104982;1258;97261;-76
2023/11/23 07:41:02;;;;;;;21.50;15.00;;;;;;;0.35;73.03;97349.27;104973;1258;101976;-76
2023/11/23 07:43:30;;;;;;;22.80;16.10;;;;;;;0.41;72.74;97343.72;104940;1258;100394;-76
2023/11/23 07:45:59;;;;;;;22.60;16.00;;;;;;;0.48;72.94;97349.87;104822;1264;97813;-76
2023/11/23 07:48:27;;;;;;;21.70;15.50;;;;;;;0.54;72.87;97350.90;105033;1254;97463;-76
2023/11/23 07:50:56;;;;;;;24.10;15.90;;;;;;;0.56;72.33;97341.10;104832;1254;97054;-84
2023/11/23 07:53:26;;;;;;;23.10;16.70;;;;;;;0.58;72.18;97327.87;105040;1258;101286;-84
2023/11/23 07:55:54;;;;;;;28.00;19.40;;;;;;;0.64;72.39;97319.68;105021;1258;99302;-85
2023/11/23 07:58:23;;;;;;;36.40;22.40;;;;;;;0.69;72.50;97325.83;104898;1257;99342;-84
2023/11/23 08:00:50;;;;;;;32.70;21.60;;;;;;;0.73;72.67;97322.62;104918;1257;96577;-85
2023/11/23 08:03:19;;;;;;;31.50;20.90;;;;;;;0.77;72.67;97322.42;104927;1268;96987;-85
2023/11/23 08:05:47;;;;;;;31.80;21.50;;;;;;;0.79;72.28;97312.67;104973;1269;102194;-85
2023/11/23 08:08:15;;;;;;;26.60;17.60;;;;;;;0.80;72.31;97302.27;104962;1254;100086;-81
2023/11/23 08:10:43;;;;;;;27.90;19.10;;;;;;;0.81;72.62;97294.90;104870;1270;100226;-81
2023/11/23 08:13:14;;;;;;;25.20;17.90;;;;;;;0.83;72.49;97292.55;104953;1259;97989;-80
2023/11/23 08:15:42;;;;;;;25.90;18.50;;;;;;;0.86;72.48;97301.83;104665;1262;97866;-85
2023/11/23 08:18:10;;;;;;;28.30;18.30;;;;;;;0.91;72.50;97299.88;104648;1264;102559;-85
2023/11/23 08:20:37;;;;;;;25.20;17.70;;;;;;;0.99;72.72;97294.85;104678;1264;101550;-85
2023/11/23 08:23:07;;;;;;;24.70;17.60;;;;;;;1.06;72.65;97297.10;104575;1263;100302;-84
2023/11/23 08:25:35;;;;;;;26.10;17.60;;;;;;;1.12;72.18;97301.21;104687;1274;97483;-85
2023/11/23 08:28:03;;;;;;;26.00;18.10;;;;;;;1.16;72.17;97299.77;104690;1257;97198;-86
2023/11/23 08:30:31;;;;;;;26.30;17.20;;;;;;;1.20;72.16;97288.33;104570;1273;102440;-86
2023/11/23 08:32:59;;;;;;;30.50;19.50;;;;;;;1.26;72.16;97283.23;104591;1271;109160;-85
2023/11/23 08:35:27;;;;;;;24.50;16.70;;;;;;;1.30;72.12;97284.58;104520;1257;99815;-85
2023/11/23 08:37:55;;;;;;;26.30;17.70;;;;;;;1.36;72.09;97289.09;104633;1260;98081;-84
2023/11/23 08:40:23;;;;;;;28.20;18.40;;;;;;;1.40;71.71;97285.53;104584;1262;97778;-85
2023/11/23 08:42:51;;;;;;;28.40;18.50;;;;;;;1.42;72.05;97290.60;104632;1262;102375;-85
2023/11/23 08:45:19;;;;;;;25.50;16.30;;;;;;;1.45;71.69;97288.38;104585;1273;101634;-86
2023/11/23 08:47:47;;;;;;;25.30;16.40;;;;;;;1.43;71.42;97285.05;104571;1260;97922;-81
2023/11/23 08:50:15;;;;;;;26.10;16.60;;;;;;;1.43;71.89;97280.02;104872;1253;96633;-81
2023/11/23 08:52:43;;;;;;;25.50;17.70;;;;;;;1.47;72.24;97278.77;104959;1259;97193;-81
2023/11/23 08:55:11;;;;;;;28.40;17.80;;;;;;;1.50;72.26;97277.44;105014;1258;102214;-80
2023/11/23 08:57:40;;;;;;;26.20;17.50;;;;;;;1.52;72.34;97277.36;104956;1254;101378;-81
2023/11/23 09:00:11;;;;;;;30.70;18.70;;;;;;;1.53;72.48;97281.86;104688;1272;100036;-81
2023/11/23 09:02:39;;;;;;;29.70;18.90;;;;;;;1.53;72.55;97275.30;104719;1261;96744;-80
2023/11/23 09:05:08;;;;;;;38.10;23.70;;;;;;;1.55;72.61;97268.57;104923;1254;97059;-81
2023/11/23 09:07:37;;;;;;;33.70;21.10;;;;;;;1.57;72.67;97267.06;104998;1257;102372;-81
2023/11/23 09:10:05;;;;;;;34.90;21.80;;;;;;;1.59;72.83;97256.56;104913;1257;111205;-80
2023/11/23 09:12:33;;;;;;;29.40;18.30;;;;;;;1.62;72.80;97248.77;104887;1260;100319;-80
2023/11/23 09:15:04;;;;;;;28.80;19.00;;;;;;;1.63;72.53;97235.63;104974;1257;96792;-81
2023/11/23 09:17:33;;;;;;;41.50;22.30;;;;;;;1.64;72.74;97233.88;104919;1257;98231;-86
2023/11/23 09:20:01;;;;;;;30.60;19.10;;;;;;;1.66;72.70;97232.23;105032;1259;102602;-87
2023/11/23 09:22:28;;;;;;;29.10;18.20;;;;;;;1.70;72.86;97238.19;104905;1257;100370;-85
2023/11/23 09:24:56;;;;;;;37.80;22.10;;;;;;;1.75;72.85;97234.33;104941;1258;99946;-81
2023/11/23 09:27:24;;;;;;;33.60;19.90;;;;;;;1.78;72.73;97219.30;104995;1257;96638;-81
2023/11/23 09:29:51;;;;;;;27.20;18.30;;;;;;;1.79;72.55;97214.69;105051;1254;97476;-80
2023/11/23 09:32:19;;;;;;;35.50;20.50;;;;;;;1.77;71.70;97205.89;104896;1259;102395;-81
2023/11/23 09:34:47;;;;;;;29.50;18.00;;;;;;;1.76;71.91;97199.38;104966;1270;101630;-81
2023/11/23 09:37:17;;;;;;;32.70;20.40;;;;;;;1.81;72.22;97191.70;104895;1260;99812;-80
2023/11/23 09:39:46;;;;;;;35.70;20.20;;;;;;;1.91;72.36;97187.76;104929;1257;97234;-81
2023/11/23 09:42:18;;;;;;;28.90;18.20;;;;;;;2.01;72.47;97183.84;104855;1262;96977;-81
2023/11/23 09:44:54;;;;;;;26.70;18.10;;;;;;;2.09;72.70;97185.27;104756;1260;102453;-82
2023/11/23 09:47:30;;;;;;;26.20;17.00;;;;;;;2.16;72.37;97186.11;104807;1260;101851;-76
2023/11/23 09:50:00;;;;;;;28.00;17.50;;;;;;;2.17;71.60;97179.42;104898;1259;98982;-76
2023/11/23 09:52:28;;;;;;;28.40;17.70;;;;;;;2.18;71.90;97177.76;104956;1269;96623;-77
2023/11/23 09:54:59;;;;;;;25.50;17.20;;;;;;;2.21;72.13;97172.10;104966;1257;97073;-76
2023/11/23 09:57:28;;;;;;;25.00;16.80;;;;;;;2.23;71.99;97163.39;105025;1258;102704;-76
2023/11/23 09:59:57;;;;;;;30.20;17.10;;;;;;;2.26;71.99;97151.67;105006;1257;101484;-76
2023/11/23 10:02:25;;;;;;;27.00;16.70;;;;;;;2.29;72.01;97144.79;104703;1267;99506;-80
2023/11/23 10:04:58;;;;;;;26.60;16.80;;;;;;;2.31;71.73;97138.88;104966;1253;97781;-87
2023/11/23 10:07:27;;;;;;;29.10;17.00;;;;;;;2.32;71.93;97132.59;105102;1267;97260;-87
2023/11/23 10:09:55;;;;;;;26.80;17.60;;;;;;;2.32;71.80;97125.80;105029;1257;111180;-86
2023/11/23 10:12:23;;;;;;;25.90;17.70;;;;;;;2.35;72.25;97118.37;104866;1257;102707;-87
2023/11/23 10:14:53;;;;;;;25.60;17.30;;;;;;;2.40;72.38;97113.72;104637;1257;99731;-86
2023/11/23 10:17:21;;;;;;;27.30;17.40;;;;;;;2.45;72.55;97107.98;104688;1260;96680;-86
2023/11/23 10:19:49;;;;;;;24.60;16.40;;;;;;;2.50;72.59;97105.79;105013;1269;97138;-86
2023/11/23 10:22:17;;;;;;;25.10;16.40;;;;;;;2.55;72.35;97094.35;105010;1258;101903;-87
2023/11/23 10:24:51;;;;;;;27.60;17.20;;;;;;;2.60;72.19;97085.42;104969;1276;101685;-81
2023/11/23 10:27:19;;;;;;;26.40;17.20;;;;;;;2.65;72.28;97081.27;104972;1258;100069;-81
2023/11/23 10:29:47;;;;;;;30.70;20.50;;;;;;;2.72;72.74;97081.42;104887;1257;96632;-81
2023/11/23 10:32:17;;;;;;;23.50;17.10;;;;;;;2.78;72.77;97075.86;104915;1268;96984;-76
2023/11/23 10:34:44;;;;;;;28.30;17.60;;;;;;;2.83;71.95;97074.46;104953;1258;101211;-76
2023/11/23 10:37:16;;;;;;;29.50;19.80;;;;;;;2.80;71.15;97076.44;105033;1254;101615;-76
2023/11/23 10:39:45;;;;;;;27.30;18.30;;;;;;;2.80;71.03;97067.58;104952;1270;99992;-76
2023/11/23 10:42:14;;;;;;;28.90;20.00;;;;;;;2.81;71.08;97061.17;104891;1269;98846;-76
2023/11/23 10:44:42;;;;;;;24.60;17.50;;;;;;;2.86;71.03;97053.86;105008;1257;99578;-76
2023/11/23 10:47:12;;;;;;;23.00;16.90;;;;;;;2.94;71.73;97047.44;104646;1254;113313;-80
2023/11/23 10:49:44;;;;;;;25.30;16.30;;;;;;;3.00;71.95;97046.23;105006;1253;101596;-79
2023/11/23 10:52:14;;;;;;;23.90;15.90;;;;;;;2.99;70.35;97040.34;104947;1269;100181;-79
2023/11/23 10:54:42;;;;;;;26.70;17.70;;;;;;;2.96;70.84;97040.51;104911;1268;97978;-81
2023/11/23 10:57:12;;;;;;;30.10;19.90;;;;;;;2.97;71.08;97041.23;104960;1257;98808;-80
2023/11/23 10:59:42;;;;;;;26.60;18.30;;;;;;;2.97;71.16;97031.63;104964;1259;103769;-79
2023/11/23 11:02:11;;;;;;;25.80;16.70;;;;;;;2.97;71.37;97034.70;104924;1259;101395;-87
2023/11/23 11:04:40;;;;;;;28.10;18.00;;;;;;;2.98;71.15;97033.70;104923;1267;99989;-85
2023/11/23 11:07:10;;;;;;;28.70;18.00;;;;;;;2.97;70.74;97034.34;104858;1272;97920;-86
2023/11/23 11:09:39;;;;;;;31.80;19.60;;;;;;;2.96;70.44;97031.80;104658;1257;98520;-86
2023/11/23 11:12:12;;;;;;;29.10;18.30;;;;;;;2.97;71.07;97028.84;104988;1258;103437;-86
2023/11/23 11:14:51;;;;;;;28.60;17.80;;;;;;;2.99;70.65;97024.94;105016;1259;101360;-86
2023/11/23 11:17:18;;;;;;;26.70;17.80;;;;;;;2.96;70.27;97021.10;104967;1254;100238;-86
2023/11/23 11:19:50;;;;;;;27.10;16.80;;;;;;;2.96;70.41;97013.14;104960;1254;99141;-84
2023/11/23 11:22:18;;;;;;;20.80;14.80;;;;;;;2.94;70.55;96995.58;105002;1258;97884;-86
2023/11/23 11:24:45;;;;;;;26.50;17.90;;;;;;;2.91;71.11;96992.48;104974;1268;103752;-84
2023/11/23 11:27:13;;;;;;;27.70;18.20;;;;;;;2.91;71.51;96984.77;104976;1259;101553;-84
2023/11/23 11:29:51;;;;;;;27.60;18.10;;;;;;;2.90;72.11;96979.01;104661;1270;100006;-86
2023/11/23 11:32:21;;;;;;;25.30;18.00;;;;;;;2.88;72.96;96977.91;105012;1258;98010;-78
2023/11/23 11:34:59;;;;;;;24.50;16.80;;;;;;;2.80;72.89;96971.35;104761;1263;98411;-79
2023/11/23 11:37:30;;;;;;;25.40;17.30;;;;;;;2.70;73.38;96965.13;105053;1260;103741;-79
2023/11/23 11:40:00;;;;;;;24.80;17.70;;;;;;;2.66;73.71;96956.17;104882;1259;101915;-80
2023/11/23 11:42:29;;;;;;;26.00;17.20;;;;;;;2.69;73.95;96945.71;104648;1262;100183;-79
2023/11/23 11:44:57;;;;;;;27.30;18.50;;;;;;;2.72;73.91;96943.14;104937;1260;97896;-79
2023/11/23 11:47:24;;;;;;;28.70;20.10;;;;;;;2.73;73.73;96931.17;104948;1254;98484;-84
2023/11/23 11:49:52;;;;;;;25.90;17.40;;;;;;;2.71;73.58;96936.18;104980;1257;103749;-83
2023/11/23 11:52:20;;;;;;;31.20;18.10;;;;;;;2.74;73.82;96936.94;104930;1276;101676;-84
2023/11/23 11:54:48;;;;;;;49.00;26.80;;;;;;;2.78;73.64;96931.48;104925;1257;99119;-84
2023/11/23 11:57:18;;;;;;;29.40;20.30;;;;;;;2.84;73.79;96918.89;104595;1262;99137;-85
2023/11/23 11:59:46;;;;;;;33.50;21.70;;;;;;;2.91;74.10;96909.52;104972;1257;99154;-82
2023/11/23 12:02:14;;;;;;;29.60;20.20;;;;;;;3.02;74.15;96902.08;104965;1257;103929;-75
2023/11/23 12:04:43;;;;;;;25.80;18.50;;;;;;;3.09;73.58;96895.88;104909;1257;100370;-76
2023/11/23 12:07:15;;;;;;;25.80;18.50;;;;;;;3.16;73.30;96884.36;104957;1257;100137;-76
2023/11/23 12:09:42;;;;;;;26.40;18.60;;;;;;;3.19;72.76;96871.27;104883;1259;98817;-76
2023/11/23 12:12:12;;;;;;;26.60;17.50;;;;;;;3.26;73.17;96864.88;104948;1259;98421;-76
2023/11/23 12:14:40;;;;;;;28.30;18.90;;;;;;;3.35;73.08;96865.52;104929;1257;103512;-76
2023/11/23 12:17:11;;;;;;;30.00;18.00;;;;;;;3.39;72.90;96858.94;105005;1253;101605;-76
2023/11/23 12:19:54;;;;;;;25.50;15.40;;;;;;;3.44;72.58;96863.13;104922;1254;100237;-77
2023/11/23 12:22:26;;;;;;;27.40;17.50;;;;;;;3.48;72.51;96856.96;104604;1261;98758;-77
2023/11/23 12:24:55;;;;;;;25.10;15.90;;;;;;;3.54;72.60;96854.70;104877;1259;97858;-77
2023/11/23 12:27:26;;;;;;;28.30;17.90;;;;;;;3.58;71.84;96852.10;104796;1259;111513;-76
2023/11/23 12:29:54;;;;;;;25.40;16.90;;;;;;;3.59;71.71;96847.00;104968;1254;101612;-76
2023/11/23 12:32:22;;;;;;;25.10;16.20;;;;;;;3.58;71.57;96840.36;104918;1269;107803;-76
2023/11/23 12:34:50;;;;;;;28.00;16.20;;;;;;;3.56;71.86;96837.40;104933;1259;97916;-76
2023/11/23 12:37:18;;;;;;;22.30;15.30;;;;;;;3.56;71.82;96828.80;104929;1254;98335;-86
2023/11/23 12:39:54;;;;;;;23.60;16.60;;;;;;;3.56;71.57;96832.94;104989;1254;103558;-84
2023/11/23 12:42:22;;;;;;;22.00;16.20;;;;;;;3.54;71.70;96830.31;105048;1254;101222;-84
2023/11/23 12:44:50;;;;;;;25.70;17.50;;;;;;;3.53;71.88;96825.91;104958;1258;99829;-85
2023/11/23 12:47:20;;;;;;;26.30;16.80;;;;;;;3.55;71.91;96812.19;104945;1257;97889;-82
2023/11/23 12:49:49;;;;;;;24.30;17.10;;;;;;;3.58;72.01;96821.98;104985;1257;99011;-83
2023/11/23 12:52:16;;;;;;;25.90;16.90;;;;;;;3.62;72.35;96825.59;104971;1259;103604;-82
2023/11/23 12:54:44;;;;;;;25.60;15.80;;;;;;;3.67;72.31;96829.33;104946;1257;101584;-82
2023/11/23 12:57:12;;;;;;;23.30;15.80;;;;;;;3.69;72.16;96828.84;104937;1257;98933;-81
2023/11/23 12:59:40;;;;;;;22.80;15.70;;;;;;;3.72;72.14;96825.17;104900;1257;99122;-80
2023/11/23 13:02:08;;;;;;;23.70;15.20;;;;;;;3.73;72.11;96820.60;104946;1259;98481;-79
2023/11/23 13:04:37;;;;;;;20.80;14.80;;;;;;;3.69;71.68;96816.55;104919;1259;103780;-80
2023/11/23 13:07:05;;;;;;;23.90;15.40;;;;;;;3.67;71.61;96812.41;105023;1259;101534;-80
2023/11/23 13:09:33;;;;;;;24.10;16.20;;;;;;;3.66;71.92;96816.02;104921;1257;100238;-79
2023/11/23 13:12:03;;;;;;;22.40;15.60;;;;;;;3.63;71.79;96813.39;104957;1276;97902;-79
2023/11/23 13:14:31;;;;;;;21.70;15.90;;;;;;;3.60;71.77;96809.48;104934;1276;99116;-79
2023/11/23 13:16:59;;;;;;;22.50;14.60;;;;;;;3.56;71.73;96805.72;105053;1258;103530;-83
2023/11/23 13:19:27;;;;;;;24.50;15.50;;;;;;;3.54;71.81;96810.23;105021;1253;101374;-84
2023/11/23 13:21:55;;;;;;;23.50;15.50;;;;;;;3.52;72.10;96804.25;105014;1257;100272;-86
2023/11/23 13:24:23;;;;;;;24.70;15.20;;;;;;;3.53;72.25;96799.33;104978;1254;98072;-85
2023/11/23 13:26:51;;;;;;;22.20;16.00;;;;;;;3.51;72.10;96797.60;104901;1254;97851;-87
2023/11/23 13:29:18;;;;;;;25.70;17.50;;;;;;;3.49;72.12;96797.09;104916;1257;103565;-86
2023/11/23 13:31:49;;;;;;;23.50;16.20;;;;;;;3.49;72.41;96799.55;104916;1259;101370;-79